Time;durP1;ratioP1;P1;durP2;ratioP2;P2;SDS_P1;SDS_P2;PMS_P1;PMS_P2;Temp;Humidity;BMP_temperature;BMP_pressure;BME280_temperature;BME280_humidity;BME280_pressure;Samples;Min_cycle;Max_cycle;Signal;HPM_P1;HPM_P2
2023/03/20 00:01:28;;;;;;;21.00;7.80;;;7.70;99.90;;;;;;5048703;28;20053;-68
2023/03/20 00:03:55;;;;;;;26.27;8.80;;;7.80;99.90;;;;;;5048725;28;20053;-68
2023/03/20 00:06:27;;;;;;;25.38;9.00;;;7.80;99.90;;;;;;5048294;28;20068;-67
2023/03/20 00:08:54;;;;;;;30.67;9.98;;;7.80;99.90;;;;;;5050378;28;20409;-67
2023/03/20 00:11:27;;;;;;;18.88;7.28;;;7.80;99.90;;;;;;5049095;28;20128;-67
2023/03/20 00:13:59;;;;;;;13.80;6.75;;;7.80;99.90;;;;;;5031600;28;20080;-68
2023/03/20 00:16:30;;;;;;;14.80;6.70;;;7.80;99.90;;;;;;5050093;28;20378;-68
2023/03/20 00:18:57;;;;;;;15.38;6.53;;;7.90;99.90;;;;;;5048747;28;20049;-68
2023/03/20 00:21:23;;;;;;;19.73;7.57;;;7.90;99.90;;;;;;5048124;28;20041;-68
2023/03/20 00:23:49;;;;;;;16.15;6.95;;;7.80;99.90;;;;;;5048609;28;20124;-68
2023/03/20 00:26:19;;;;;;;15.90;6.15;;;7.90;99.90;;;;;;5049931;28;20091;-68
2023/03/20 00:28:47;;;;;;;14.98;6.07;;;7.80;99.90;;;;;;5049323;28;20055;-67
2023/03/20 00:31:28;;;;;;;20.77;5.95;;;7.80;99.90;;;;;;5048571;28;20040;-67
2023/03/20 00:34:02;;;;;;;18.13;5.93;;;7.90;99.90;;;;;;5049145;28;20481;-67
2023/03/20 00:36:28;;;;;;;14.40;5.88;;;7.90;99.90;;;;;;5050213;28;20036;-67
2023/03/20 00:38:57;;;;;;;16.38;6.82;;;7.80;99.90;;;;;;5048862;28;20049;-67
2023/03/20 00:41:35;;;;;;;9.95;4.95;;;7.90;99.90;;;;;;5031689;28;20073;-67
2023/03/20 00:44:17;;;;;;;12.57;5.68;;;7.90;99.90;;;;;;5048490;28;20189;-67
2023/03/20 00:46:46;;;;;;;14.80;5.20;;;7.90;99.90;;;;;;5049940;28;20072;-67
2023/03/20 00:49:12;;;;;;;13.23;5.53;;;7.80;99.90;;;;;;5047983;28;20041;-67
2023/03/20 00:51:38;;;;;;;11.80;5.57;;;7.90;99.90;;;;;;5048689;28;20041;-67
2023/03/20 00:54:16;;;;;;;10.80;5.15;;;7.90;99.90;;;;;;5049900;28;20623;-67
2023/03/20 00:56:58;;;;;;;13.85;5.88;;;7.90;99.90;;;;;;5051658;28;20041;-67
2023/03/20 00:59:30;;;;;;;12.25;5.55;;;7.90;99.90;;;;;;5051945;28;20532;-67
2023/03/20 01:01:57;;;;;;;15.95;6.15;;;7.80;99.90;;;;;;5052598;28;20052;-67
2023/03/20 01:04:23;;;;;;;10.68;5.43;;;7.80;99.90;;;;;;5053113;28;20072;-67
2023/03/20 01:06:49;;;;;;;16.38;6.40;;;7.90;99.90;;;;;;5052003;28;20076;-67
2023/03/20 01:09:14;;;;;;;11.98;6.18;;;7.80;99.90;;;;;;5052737;28;20041;-68
2023/03/20 01:11:41;;;;;;;13.45;6.03;;;7.90;99.90;;;;;;5053155;28;20044;-67
2023/03/20 01:14:13;;;;;;;15.40;7.13;;;7.90;99.90;;;;;;5052141;28;20123;-67
2023/03/20 01:16:39;;;;;;;31.48;7.57;;;7.90;99.90;;;;;;5052525;28;20481;-67
2023/03/20 01:19:05;;;;;;;15.00;5.93;;;7.90;99.90;;;;;;5053048;28;20045;-67
2023/03/20 01:21:31;;;;;;;18.73;7.15;;;7.90;99.90;;;;;;5035059;28;20045;-68
2023/03/20 01:23:57;;;;;;;19.75;7.28;;;7.90;99.90;;;;;;5052381;28;20040;-67
2023/03/20 01:26:51;;;;;;;17.33;6.50;;;7.90;99.90;;;;;;5051618;28;20060;-67
2023/03/20 01:29:18;;;;;;;13.50;6.85;;;7.90;99.90;;;;;;5049540;28;20147;-67
2023/03/20 01:31:44;;;;;;;21.00;7.35;;;7.90;99.90;;;;;;5051838;28;20052;-67
2023/03/20 01:34:10;;;;;;;21.70;8.18;;;7.90;99.90;;;;;;5051723;28;20041;-67
2023/03/20 01:36:37;;;;;;;21.58;8.07;;;7.90;99.90;;;;;;5051483;28;20124;-67
2023/03/20 01:39:03;;;;;;;20.35;9.32;;;7.90;99.90;;;;;;5052151;28;20048;-67
2023/03/20 01:41:31;;;;;;;18.77;8.90;;;7.90;99.90;;;;;;5052684;28;20448;-67
2023/03/20 01:44:00;;;;;;;16.98;9.00;;;7.90;99.90;;;;;;5050573;28;20049;-67
2023/03/20 01:46:35;;;;;;;26.13;10.02;;;7.90;99.90;;;;;;5051075;28;20048;-67
2023/03/20 01:49:27;;;;;;;21.67;9.52;;;7.90;99.90;;;;;;5052683;28;20037;-67
2023/03/20 01:51:57;;;;;;;20.23;9.60;;;7.90;99.90;;;;;;5050329;28;20053;-67
2023/03/20 01:54:28;;;;;;;;;;;7.90;99.90;;;;;;5052900;28;20102;-67
2023/03/20 01:57:16;;;;;;;19.73;9.10;;;7.90;99.90;;;;;;5052289;28;19944;-67
2023/03/20 02:00:04;;;;;;;24.75;9.40;;;7.90;99.90;;;;;;5050123;28;20533;-67
2023/03/20 02:02:31;;;;;;;19.42;9.63;;;7.90;99.90;;;;;;5052081;28;20048;-67
2023/03/20 02:05:04;;;;;;;21.60;9.23;;;7.90;99.90;;;;;;5049705;28;20052;-67
2023/03/20 02:07:33;;;;;;;18.70;8.90;;;7.90;99.90;;;;;;5050850;28;20055;-67
2023/03/20 02:10:00;;;;;;;19.67;9.50;;;7.90;99.90;;;;;;5050856;28;20044;-66
2023/03/20 02:12:26;;;;;;;18.98;8.70;;;7.90;99.90;;;;;;5050357;28;20039;-66
2023/03/20 02:14:52;;;;;;;24.13;10.35;;;7.90;99.90;;;;;;5052023;28;20037;-66
2023/03/20 02:17:18;;;;;;;17.85;8.60;;;7.90;99.90;;;;;;5052014;28;20041;-67
2023/03/20 02:20:06;;;;;;;18.45;8.55;;;7.80;99.90;;;;;;5051282;28;20044;-66
2023/03/20 02:22:53;;;;;;;21.30;9.10;;;7.80;99.90;;;;;;5050620;28;20076;-66
2023/03/20 02:25:31;;;;;;;18.55;9.25;;;7.90;99.90;;;;;;5050295;28;20041;-66
2023/03/20 02:28:21;;;;;;;17.65;8.20;;;7.90;99.90;;;;;;5050994;28;20440;-66
2023/03/20 02:31:29;;;;;;;17.75;7.57;;;7.90;99.90;;;;;;5050510;28;20102;-66
2023/03/20 02:33:58;;;;;;;15.68;8.63;;;7.80;99.90;;;;;;5050852;28;20133;-66
2023/03/20 02:36:59;;;;;;;20.50;9.73;;;7.90;99.90;;;;;;5050673;28;20045;-66
2023/03/20 02:39:25;;;;;;;16.85;8.52;;;7.90;99.90;;;;;;5051673;28;20045;-66
2023/03/20 02:42:00;;;;;;;16.50;8.07;;;7.90;99.90;;;;;;5049598;28;20098;-66
2023/03/20 02:44:50;;;;;;;17.08;8.70;;;7.90;99.90;;;;;;5051395;28;20032;-66
2023/03/20 02:47:28;;;;;;;13.88;6.45;;;7.90;99.90;;;;;;5032909;28;20053;-66
2023/03/20 02:50:00;;;;;;;16.10;8.40;;;7.90;99.90;;;;;;5050323;28;20473;-66
2023/03/20 02:52:50;;;;;;;16.58;7.93;;;7.90;99.90;;;;;;5049935;28;20043;-66
2023/03/20 02:55:26;;;;;;;15.15;7.63;;;7.90;99.90;;;;;;5050646;28;20033;-67
2023/03/20 02:58:11;;;;;;;16.45;7.63;;;7.90;99.90;;;;;;5050200;28;20474;-67
2023/03/20 03:01:13;;;;;;;16.73;7.53;;;7.90;99.90;;;;;;5049624;28;20037;-67
2023/03/20 03:03:52;;;;;;;18.92;7.78;;;7.90;99.90;;;;;;5049589;28;20120;-67
2023/03/20 03:06:31;;;;;;;14.25;7.28;;;7.90;99.90;;;;;;5051057;28;20045;-67
2023/03/20 03:09:01;;;;;;;13.30;6.60;;;7.90;99.90;;;;;;5050685;28;20091;-66
2023/03/20 03:11:28;;;;;;;17.25;7.28;;;7.90;99.90;;;;;;5051062;28;20033;-66
2023/03/20 03:13:56;;;;;;;13.63;7.25;;;7.90;99.90;;;;;;5049747;28;20059;-66
2023/03/20 03:16:30;;;;;;;10.82;7.00;;;7.90;99.90;;;;;;5050211;28;20048;-66
2023/03/20 03:19:21;;;;;;;16.77;7.78;;;7.90;99.90;;;;;;5049498;28;20049;-66
2023/03/20 03:21:48;;;;;;;15.35;7.90;;;7.90;99.90;;;;;;5037066;28;20059;-66
2023/03/20 03:24:28;;;;;;;16.67;7.32;;;7.90;99.90;;;;;;5049584;28;20740;-66
2023/03/20 03:26:58;;;;;;;12.77;7.25;;;7.90;99.90;;;;;;5050877;28;20160;-66
2023/03/20 03:29:26;;;;;;;13.98;7.45;;;7.90;99.90;;;;;;5050270;28;20109;-66
2023/03/20 03:31:53;;;;;;;10.90;7.05;;;7.90;99.90;;;;;;5051112;28;20474;-66
2023/03/20 03:34:22;;;;;;;12.45;6.63;;;7.90;99.90;;;;;;5051029;28;20123;-66
2023/03/20 03:37:00;;;;;;;13.75;7.05;;;7.90;99.90;;;;;;5048919;28;20481;-66
2023/03/20 03:39:47;;;;;;;16.73;7.45;;;7.80;99.90;;;;;;5049573;28;20040;-66
2023/03/20 03:42:20;;;;;;;12.50;6.78;;;7.80;99.90;;;;;;5049356;28;20378;-66
2023/03/20 03:45:01;;;;;;;14.77;6.25;;;7.90;99.90;;;;;;5050284;28;20064;-67
2023/03/20 03:47:45;;;;;;;14.68;7.13;;;7.80;99.90;;;;;;5049455;28;20048;-67
2023/03/20 03:50:25;;;;;;;11.15;6.70;;;7.80;99.90;;;;;;5048653;28;20073;-66
2023/03/20 03:52:55;;;;;;;16.90;9.20;;;7.80;99.90;;;;;;5050668;28;20033;-66
2023/03/20 03:55:25;;;;;;;13.43;6.70;;;7.80;99.90;;;;;;5049570;28;20508;-66
2023/03/20 03:58:25;;;;;;;15.55;6.72;;;7.80;99.90;;;;;;5048839;28;20099;-66
2023/03/20 04:00:53;;;;;;;11.07;6.18;;;7.80;99.90;;;;;;5046683;28;20040;-66
2023/03/20 04:03:22;;;;;;;12.18;5.97;;;7.80;99.90;;;;;;5049210;28;20048;-66
2023/03/20 04:05:50;;;;;;;14.30;5.83;;;7.80;99.90;;;;;;5050129;28;20041;-66
2023/03/20 04:08:16;;;;;;;16.52;6.32;;;7.80;99.90;;;;;;5049092;28;20284;-66
2023/03/20 04:10:42;;;;;;;13.93;6.05;;;7.80;99.90;;;;;;5049988;28;20040;-66
2023/03/20 04:13:07;;;;;;;12.70;6.18;;;7.80;99.90;;;;;;5049116;28;20087;-66
2023/03/20 04:15:33;;;;;;;15.85;6.45;;;7.70;99.90;;;;;;5049059;28;20041;-66
2023/03/20 04:17:59;;;;;;;11.77;6.32;;;7.70;99.90;;;;;;5048438;28;20049;-67
2023/03/20 04:20:25;;;;;;;11.40;5.78;;;7.70;99.90;;;;;;5050408;28;20037;-67
2023/03/20 04:22:51;;;;;;;12.40;6.28;;;7.70;99.90;;;;;;5049368;28;20362;-67
2023/03/20 04:25:21;;;;;;;15.52;6.22;;;7.70;99.90;;;;;;5048113;28;20378;-67
2023/03/20 04:27:46;;;;;;;11.88;6.50;;;7.70;99.90;;;;;;5048833;28;20057;-67
2023/03/20 04:30:12;;;;;;;14.02;7.03;;;7.70;99.90;;;;;;5052589;28;20068;-67
2023/03/20 04:32:38;;;;;;;14.07;7.20;;;7.60;99.90;;;;;;5053590;28;20073;-67
2023/03/20 04:35:05;;;;;;;13.73;7.30;;;7.60;99.90;;;;;;5054391;28;20115;-66
2023/03/20 04:37:30;;;;;;;14.45;7.93;;;7.60;99.90;;;;;;5054260;28;20036;-66
2023/03/20 04:39:56;;;;;;;12.32;8.00;;;7.60;99.90;;;;;;5053631;28;20042;-66
2023/03/20 04:42:22;;;;;;;15.73;8.18;;;7.60;99.90;;;;;;5053029;28;20473;-66
2023/03/20 04:45:15;;;;;;;14.10;8.40;;;7.60;99.90;;;;;;5054151;28;20411;-66
2023/03/20 04:47:51;;;;;;;18.75;8.35;;;7.60;99.90;;;;;;5051171;28;20040;-66
2023/03/20 04:50:17;;;;;;;14.90;8.00;;;7.60;99.90;;;;;;5053851;28;20116;-66
2023/03/20 04:52:42;;;;;;;15.98;8.30;;;7.60;99.90;;;;;;5052271;28;20044;-66
2023/03/20 04:55:09;;;;;;;16.13;9.23;;;7.60;99.90;;;;;;5054079;28;20422;-66
2023/03/20 04:57:35;;;;;;;16.08;8.93;;;7.60;99.90;;;;;;5053806;28;20202;-66
2023/03/20 05:00:01;;;;;;;18.20;8.85;;;7.60;99.90;;;;;;5053365;28;20175;-66
2023/03/20 05:02:26;;;;;;;20.35;10.70;;;7.60;99.90;;;;;;5052642;28;20134;-66
2023/03/20 05:04:52;;;;;;;18.23;9.38;;;7.60;99.90;;;;;;5053597;28;20530;-66
2023/03/20 05:07:18;;;;;;;16.77;9.02;;;7.50;99.90;;;;;;5051780;28;20041;-66
2023/03/20 05:09:44;;;;;;;15.43;8.88;;;7.50;99.90;;;;;;5052278;28;20040;-66
2023/03/20 05:12:09;;;;;;;18.52;9.55;;;7.50;99.90;;;;;;5053478;28;20116;-66
2023/03/20 05:14:35;;;;;;;16.52;9.65;;;7.50;99.90;;;;;;5053010;28;20045;-66
2023/03/20 05:17:01;;;;;;;17.88;9.55;;;7.50;99.90;;;;;;5052150;28;20049;-66
2023/03/20 05:19:27;;;;;;;19.92;10.25;;;7.50;99.90;;;;;;5053405;28;20044;-66
2023/03/20 05:21:52;;;;;;;16.98;9.38;;;7.50;99.90;;;;;;5051390;28;20045;-66
2023/03/20 05:24:18;;;;;;;15.68;8.90;;;7.50;99.90;;;;;;5051938;28;20045;-66
2023/03/20 05:26:44;;;;;;;16.05;9.38;;;7.50;99.90;;;;;;5051764;28;20123;-66
2023/03/20 05:29:10;;;;;;;20.48;9.85;;;7.50;99.90;;;;;;5051616;28;20044;-66
2023/03/20 05:31:36;;;;;;;22.63;10.18;;;7.50;99.90;;;;;;5053273;28;20041;-66
2023/03/20 05:34:02;;;;;;;15.85;9.32;;;7.50;99.90;;;;;;5051836;28;20045;-66
2023/03/20 05:36:28;;;;;;;20.45;9.52;;;7.50;99.90;;;;;;5052549;28;20525;-65
2023/03/20 05:38:54;;;;;;;18.23;9.45;;;7.50;99.90;;;;;;5051719;28;20133;-67
2023/03/20 05:41:20;;;;;;;15.10;9.13;;;7.50;99.90;;;;;;5051984;28;20113;-66
2023/03/20 05:43:46;;;;;;;14.75;8.80;;;7.50;99.90;;;;;;5051116;28;20473;-66
2023/03/20 05:46:11;;;;;;;14.60;8.57;;;7.50;99.90;;;;;;5052950;28;20036;-66
2023/03/20 05:48:37;;;;;;;18.40;9.15;;;7.50;99.90;;;;;;5052447;28;20473;-66
2023/03/20 05:51:03;;;;;;;17.52;8.38;;;7.50;99.90;;;;;;5052819;28;20365;-66
2023/03/20 05:53:29;;;;;;;18.58;9.35;;;7.50;99.90;;;;;;5051393;28;20550;-66
2023/03/20 05:55:55;;;;;;;14.75;8.82;;;7.50;99.90;;;;;;5050765;28;20049;-66
2023/03/20 05:58:21;;;;;;;17.30;9.77;;;7.50;99.90;;;;;;5051541;28;20186;-66
2023/03/20 06:00:46;;;;;;;14.93;8.98;;;7.50;99.90;;;;;;5052707;28;20389;-66
2023/03/20 06:03:12;;;;;;;14.57;8.90;;;7.50;99.90;;;;;;5050915;28;20125;-66
2023/03/20 06:05:38;;;;;;;16.67;8.55;;;7.50;99.90;;;;;;5051675;28;20484;-68
2023/03/20 06:08:04;;;;;;;19.05;9.55;;;7.50;99.90;;;;;;5049954;28;20040;-67
2023/03/20 06:10:30;;;;;;;16.10;8.57;;;7.60;99.90;;;;;;5049829;28;20508;-67
2023/03/20 06:12:59;;;;;;;17.30;9.32;;;7.60;99.90;;;;;;5050236;28;20033;-67
2023/03/20 06:15:29;;;;;;;17.55;8.98;;;7.60;99.90;;;;;;5049665;28;20049;-67
2023/03/20 06:17:55;;;;;;;23.07;11.53;;;7.60;99.90;;;;;;5050160;28;20102;-67
2023/03/20 06:20:21;;;;;;;21.60;10.27;;;7.60;99.90;;;;;;5050341;28;20349;-67
2023/03/20 06:22:46;;;;;;;17.38;9.40;;;7.60;99.90;;;;;;5049700;28;20485;-67
2023/03/20 06:25:12;;;;;;;21.50;10.15;;;7.60;99.90;;;;;;5049261;28;20090;-67
2023/03/20 06:27:39;;;;;;;19.33;10.13;;;7.60;99.90;;;;;;5050838;28;20118;-67
2023/03/20 06:30:05;;;;;;;15.60;8.93;;;7.60;99.90;;;;;;5051051;28;20084;-67
2023/03/20 06:32:31;;;;;;;18.60;10.40;;;7.70;99.90;;;;;;5049018;28;20037;-67
2023/03/20 06:34:57;;;;;;;19.35;10.93;;;7.60;99.90;;;;;;5050827;28;20037;-67
2023/03/20 06:37:23;;;;;;;23.88;10.73;;;7.60;99.90;;;;;;5050822;28;20045;-67
2023/03/20 06:39:48;;;;;;;20.83;11.30;;;7.70;99.90;;;;;;5048844;28;20056;-67
2023/03/20 06:42:15;;;;;;;23.00;11.52;;;7.70;99.90;;;;;;5049358;28;20068;-67
2023/03/20 06:44:42;;;;;;;23.35;10.95;;;7.70;99.90;;;;;;5049868;28;20041;-67
2023/03/20 06:47:07;;;;;;;22.67;12.07;;;7.70;99.90;;;;;;5049248;28;20041;-67
2023/03/20 06:49:33;;;;;;;20.25;11.18;;;7.80;99.90;;;;;;5050439;28;20033;-67
2023/03/20 06:51:59;;;;;;;21.05;11.60;;;7.80;99.90;;;;;;5048061;28;20139;-67
2023/03/20 06:54:26;;;;;;;21.33;11.65;;;7.80;99.90;;;;;;5032633;28;20053;-67
2023/03/20 06:56:51;;;;;;;23.35;11.30;;;7.80;99.90;;;;;;5049091;28;20041;-66
2023/03/20 06:59:17;;;;;;;23.25;11.43;;;7.80;99.90;;;;;;5049548;28;20111;-66
2023/03/20 07:01:43;;;;;;;24.60;12.32;;;7.80;99.90;;;;;;5049107;28;20072;-67
2023/03/20 07:04:09;;;;;;;20.42;12.25;;;7.90;99.90;;;;;;5050356;28;20115;-66
2023/03/20 07:06:35;;;;;;;19.23;11.82;;;7.90;99.90;;;;;;5048313;28;20045;-66
2023/03/20 07:09:01;;;;;;;23.67;12.23;;;7.90;99.90;;;;;;5050382;28;20045;-66
2023/03/20 07:11:27;;;;;;;25.83;11.32;;;7.90;99.90;;;;;;5032178;28;20464;-66
2023/03/20 07:13:53;;;;;;;21.98;12.27;;;7.90;99.90;;;;;;5050082;28;20072;-66
2023/03/20 07:16:19;;;;;;;24.08;12.75;;;8.00;99.90;;;;;;5050235;28;20090;-65
2023/03/20 07:18:45;;;;;;;22.45;10.80;;;8.00;99.90;;;;;;5050249;28;20469;-65
2023/03/20 07:21:17;;;;;;;21.67;13.38;;;8.00;99.90;;;;;;5049723;28;20033;-67
2023/03/20 07:23:43;;;;;;;24.55;13.30;;;8.00;99.90;;;;;;5049997;28;20045;-65
2023/03/20 07:26:10;;;;;;;25.15;13.30;;;8.00;99.90;;;;;;5048596;28;20055;-66
2023/03/20 07:28:35;;;;;;;21.55;11.75;;;8.10;99.90;;;;;;5049154;28;20504;-66
2023/03/20 07:31:02;;;;;;;22.45;11.90;;;8.10;99.90;;;;;;5048406;28;20120;-66
2023/03/20 07:33:28;;;;;;;23.27;12.05;;;8.20;99.90;;;;;;5049959;28;20048;-65
2023/03/20 07:35:54;;;;;;;21.25;12.73;;;8.20;99.90;;;;;;5047982;28;20041;-65
2023/03/20 07:38:21;;;;;;;20.70;12.38;;;8.30;99.90;;;;;;5048335;28;20044;-65
2023/03/20 07:40:48;;;;;;;20.17;12.50;;;8.30;99.90;;;;;;5047878;28;20048;-66
2023/03/20 07:43:15;;;;;;;22.27;12.73;;;8.40;99.90;;;;;;5049666;28;20044;-66
2023/03/20 07:45:41;;;;;;;19.55;12.30;;;8.40;99.90;;;;;;5049588;28;20127;-66
2023/03/20 07:48:07;;;;;;;20.55;12.80;;;8.40;99.90;;;;;;5049268;28;20170;-66
2023/03/20 07:50:32;;;;;;;20.77;11.45;;;8.40;99.90;;;;;;5048506;28;20643;-66
2023/03/20 07:52:58;;;;;;;21.10;12.55;;;8.50;99.90;;;;;;5049616;28;20175;-66
2023/03/20 07:55:25;;;;;;;21.88;12.13;;;8.50;99.90;;;;;;5049018;28;20048;-66
2023/03/20 07:57:51;;;;;;;25.63;12.57;;;8.60;99.90;;;;;;5048516;28;20392;-66
2023/03/20 08:00:17;;;;;;;17.42;10.68;;;8.60;99.90;;;;;;5048194;28;20123;-66
2023/03/20 08:02:43;;;;;;;23.60;12.10;;;8.70;99.90;;;;;;5047486;28;20355;-66
2023/03/20 08:05:09;;;;;;;19.73;11.32;;;8.70;99.90;;;;;;5049257;28;20045;-66
2023/03/20 08:07:35;;;;;;;21.55;11.82;;;8.80;99.90;;;;;;5048867;28;20444;-67
2023/03/20 08:10:02;;;;;;;24.52;12.40;;;8.80;99.90;;;;;;5048619;28;20041;-67
2023/03/20 08:12:28;;;;;;;23.20;12.45;;;8.90;99.90;;;;;;5050404;28;20036;-66
2023/03/20 08:14:54;;;;;;;22.17;13.30;;;9.00;99.90;;;;;;5050434;28;20047;-66
2023/03/20 08:17:20;;;;;;;20.40;11.15;;;9.00;99.90;;;;;;5048585;28;20127;-66
2023/03/20 08:19:46;;;;;;;26.65;11.65;;;9.10;99.90;;;;;;5045014;28;20099;-66
2023/03/20 08:22:12;;;;;;;20.75;10.80;;;9.10;99.90;;;;;;5048750;28;20714;-66
2023/03/20 08:24:38;;;;;;;20.08;11.27;;;9.20;99.90;;;;;;5049613;28;20045;-66
2023/03/20 08:27:04;;;;;;;20.25;11.63;;;9.20;99.90;;;;;;5050112;28;20071;-65
2023/03/20 08:29:30;;;;;;;19.65;10.90;;;9.30;99.90;;;;;;5048767;28;20057;-65
2023/03/20 08:31:56;;;;;;;18.60;11.20;;;9.30;99.90;;;;;;5049843;28;20112;-66
2023/03/20 08:34:22;;;;;;;23.00;10.88;;;9.30;99.90;;;;;;5039795;28;20115;-65
2023/03/20 08:36:48;;;;;;;19.25;9.95;;;9.40;99.90;;;;;;5063782;28;20435;-65
2023/03/20 08:39:14;;;;;;;16.92;10.15;;;9.50;99.90;;;;;;5030560;28;20453;-66
2023/03/20 08:41:44;;;;;;;21.10;11.85;;;9.60;99.90;;;;;;5033434;28;20059;-66
2023/03/20 08:44:11;;;;;;;14.40;9.55;;;9.60;99.90;;;;;;5048630;28;20101;-66
2023/03/20 08:46:38;;;;;;;21.30;12.25;;;9.60;99.90;;;;;;5048984;28;20037;-66
2023/03/20 08:49:04;;;;;;;19.40;10.07;;;9.60;99.90;;;;;;5050173;28;20041;-66
2023/03/20 08:51:30;;;;;;;18.42;9.50;;;9.60;99.90;;;;;;5049577;28;20048;-66
2023/03/20 08:53:56;;;;;;;16.73;8.48;;;9.60;99.90;;;;;;5049042;28;20041;-67
2023/03/20 08:56:22;;;;;;;17.08;9.88;;;9.70;99.90;;;;;;5050288;28;20473;-66
2023/03/20 08:58:48;;;;;;;14.77;9.63;;;9.70;99.90;;;;;;5048298;28;20052;-66
2023/03/20 09:01:14;;;;;;;17.13;10.05;;;9.70;99.90;;;;;;5048360;28;20499;-66
2023/03/20 09:03:40;;;;;;;17.10;10.45;;;9.70;99.90;;;;;;5048595;28;20049;-66
2023/03/20 09:06:07;;;;;;;18.30;11.48;;;9.80;99.90;;;;;;5048058;28;20072;-66
2023/03/20 09:08:34;;;;;;;17.25;10.30;;;9.90;99.90;;;;;;5082524;28;20095;-66
2023/03/20 09:11:00;;;;;;;18.17;9.13;;;10.00;99.90;;;;;;5048711;28;20041;-66
2023/03/20 09:13:26;;;;;;;17.58;10.00;;;10.10;99.90;;;;;;5049093;28;20041;-66
2023/03/20 09:15:53;;;;;;;19.35;9.73;;;10.30;99.90;;;;;;5050838;28;20128;-66
2023/03/20 09:18:20;;;;;;;14.25;9.05;;;10.30;99.90;;;;;;5052231;28;20059;-66
2023/03/20 09:20:46;;;;;;;16.92;9.07;;;10.30;99.90;;;;;;5052909;28;20394;-66
2023/03/20 09:23:12;;;;;;;15.93;10.25;;;10.30;99.90;;;;;;5051758;28;20041;-66
2023/03/20 09:25:38;;;;;;;17.90;9.15;;;10.30;99.90;;;;;;5051053;28;20049;-66
2023/03/20 09:28:04;;;;;;;19.55;9.18;;;10.20;99.90;;;;;;5053619;28;20099;-66
2023/03/20 09:30:30;;;;;;;19.98;8.85;;;10.30;99.90;;;;;;5035258;28;20083;-65
2023/03/20 09:32:55;;;;;;;16.05;7.60;;;10.30;99.90;;;;;;5052691;28;20037;-65
2023/03/20 09:35:21;;;;;;;15.88;8.65;;;10.20;99.90;;;;;;5051866;28;20048;-65
2023/03/20 09:37:47;;;;;;;18.17;9.88;;;10.20;99.90;;;;;;5051812;28;20041;-66
2023/03/20 09:40:52;;;;;;;21.27;8.70;;;10.20;99.90;;;;;;5051022;28;20067;-65
2023/03/20 09:43:46;;;;;;;16.40;9.23;;;10.30;99.90;;;;;;5051730;28;20041;-65
2023/03/20 09:46:56;;;;;;;16.00;8.10;;;10.30;99.90;;;;;;5051590;28;20051;-66
2023/03/20 09:49:22;;;;;;;;;;;10.40;99.90;;;;;;5047542;28;20057;-66
2023/03/20 09:51:58;;;;;;;15.00;8.07;;;10.40;99.90;;;;;;5051805;28;19916;-65
2023/03/20 09:54:35;;;;;;;13.63;7.18;;;10.40;99.90;;;;;;5051242;28;20037;-65
2023/03/20 09:57:01;;;;;;;16.42;7.63;;;10.40;99.90;;;;;;5052879;28;20106;-66
2023/03/20 09:59:31;;;;;;;16.35;7.45;;;10.40;99.90;;;;;;5052818;28;20606;-65
2023/03/20 10:02:23;;;;;;;16.60;7.53;;;10.40;99.90;;;;;;5051405;28;20052;-65
2023/03/20 10:04:53;;;;;;;15.05;7.10;;;10.40;99.90;;;;;;5045502;28;20084;-65
2023/03/20 10:07:19;;;;;;;;;;;10.30;99.90;;;;;;5051851;28;20111;-65
2023/03/20 10:09:45;;;;;;;19.25;8.10;;;10.30;99.90;;;;;;5050605;28;20042;-66
2023/03/20 10:12:23;;;;;;;13.18;7.13;;;10.30;99.90;;;;;;5034582;28;20095;-66
2023/03/20 10:15:17;;;;;;;14.20;7.15;;;10.20;99.90;;;;;;5051956;28;20051;-66
2023/03/20 10:17:52;;;;;;;16.17;7.25;;;10.20;99.90;;;;;;5052246;28;20048;-66
2023/03/20 10:20:26;;;;;;;13.77;7.38;;;10.20;99.90;;;;;;5051097;28;20040;-66
2023/03/20 10:22:57;;;;;;;12.82;6.93;;;10.20;99.90;;;;;;5050369;28;20048;-66
2023/03/20 10:25:29;;;;;;;14.65;6.78;;;10.20;99.90;;;;;;5052310;28;20037;-66
2023/03/20 10:27:59;;;;;;;12.05;7.28;;;10.30;99.90;;;;;;5050038;28;20053;-66
2023/03/20 10:30:32;;;;;;;;;;;10.30;99.90;;;;;;5052591;28;20481;-66
2023/03/20 10:33:13;;;;;;;13.23;6.28;;;10.40;99.90;;;;;;5050958;28;20006;-65
2023/03/20 10:36:08;;;;;;;11.93;6.28;;;10.40;99.90;;;;;;5050365;28;20044;-65
2023/03/20 10:38:51;;;;;;;14.80;5.80;;;10.50;99.90;;;;;;5030101;28;20053;-65
2023/03/20 10:41:20;;;;;;;14.80;6.22;;;10.50;99.90;;;;;;5051211;28;20049;-65
2023/03/20 10:43:50;;;;;;;11.18;6.85;;;10.50;99.90;;;;;;5051302;28;20043;-66
2023/03/20 10:46:18;;;;;;;15.52;6.38;;;10.50;99.90;;;;;;5051965;28;20053;-66
2023/03/20 10:49:07;;;;;;;10.93;5.82;;;10.50;99.90;;;;;;5051832;28;20111;-66
2023/03/20 10:51:48;;;;;;;13.60;6.13;;;10.50;99.90;;;;;;5051230;28;20486;-67
2023/03/20 10:54:25;;;;;;;11.27;5.63;;;10.30;99.90;;;;;;5051671;28;20505;-66
2023/03/20 10:56:55;;;;;;;12.63;5.68;;;10.20;99.90;;;;;;5049696;28;20044;-66
2023/03/20 10:59:48;;;;;;;12.68;5.72;;;10.20;99.90;;;;;;5050369;28;20051;-66
2023/03/20 11:02:17;;;;;;;13.95;6.13;;;10.10;99.90;;;;;;5047948;28;20106;-66
2023/03/20 11:04:43;;;;;;;10.43;6.07;;;10.10;99.90;;;;;;5049506;28;20500;-67
2023/03/20 11:07:27;;;;;;;12.80;6.00;;;10.10;99.90;;;;;;5049883;28;20513;-66
2023/03/20 11:10:06;;;;;;;13.13;6.85;;;10.10;99.90;;;;;;5051292;28;20037;-65
2023/03/20 11:12:44;;;;;;;12.55;5.90;;;10.10;99.90;;;;;;5049781;28;20344;-66
2023/03/20 11:15:26;;;;;;;18.30;6.47;;;10.10;99.90;;;;;;5051288;28;20097;-67
2023/03/20 11:17:58;;;;;;;13.45;6.40;;;10.10;99.90;;;;;;5032848;28;20045;-66
2023/03/20 11:20:26;;;;;;;11.70;5.13;;;10.20;99.90;;;;;;5051360;28;20443;-66
2023/03/20 11:23:07;;;;;;;14.38;6.22;;;10.30;99.90;;;;;;5049638;28;20432;-65
2023/03/20 11:25:38;;;;;;;12.45;5.95;;;10.20;99.90;;;;;;5049198;28;20617;-66
2023/03/20 11:28:37;;;;;;;14.55;6.40;;;10.20;99.90;;;;;;5050031;28;20037;-65
2023/03/20 11:31:23;;;;;;;10.13;4.90;;;10.20;99.90;;;;;;5049773;28;20041;-65
2023/03/20 11:34:05;;;;;;;13.52;5.18;;;10.20;99.90;;;;;;5049220;28;20132;-64
2023/03/20 11:36:33;;;;;;;11.00;4.75;;;10.20;99.90;;;;;;5049717;28;20056;-64
2023/03/20 11:39:14;;;;;;;11.57;5.85;;;10.10;99.90;;;;;;5049196;28;20167;-66
2023/03/20 11:41:44;;;;;;;11.27;6.05;;;9.90;99.90;;;;;;5049743;28;20071;-67
2023/03/20 11:44:20;;;;;;;;;;;9.80;99.90;;;;;;5049989;28;20103;-67
2023/03/20 11:47:04;;;;;;;13.63;5.90;;;9.70;99.90;;;;;;5049231;28;19917;-67
2023/03/20 11:49:32;;;;;;;12.70;5.38;;;9.60;99.90;;;;;;5050724;28;20059;-67
2023/03/20 11:52:10;;;;;;;13.57;5.65;;;9.60;99.90;;;;;;5049657;28;20080;-67
2023/03/20 11:54:37;;;;;;;15.07;6.07;;;9.70;99.90;;;;;;5048876;28;20045;-67
2023/03/20 11:57:03;;;;;;;13.35;6.20;;;9.70;99.90;;;;;;5050686;28;20470;-66
2023/03/20 11:59:36;;;;;;;12.20;5.80;;;9.80;99.90;;;;;;5049605;28;20129;-66
2023/03/20 12:02:21;;;;;;;11.50;5.43;;;9.80;99.90;;;;;;5050546;28;20045;-66
2023/03/20 12:04:47;;;;;;;12.98;6.22;;;9.80;99.90;;;;;;5049311;28;20076;-66
2023/03/20 12:07:18;;;;;;;13.07;7.50;;;9.70;99.90;;;;;;5048869;28;20142;-66
2023/03/20 12:09:51;;;;;;;15.48;6.28;;;9.60;99.90;;;;;;5050539;28;20041;-66
2023/03/20 12:12:41;;;;;;;13.98;6.10;;;9.50;99.90;;;;;;5049403;28;20055;-66
2023/03/20 12:15:17;;;;;;;20.05;8.13;;;9.50;99.90;;;;;;5050013;28;20052;-66
2023/03/20 12:18:15;;;;;;;15.05;7.10;;;9.40;99.90;;;;;;5032535;28;20116;-66
2023/03/20 12:21:18;;;;;;;14.82;7.22;;;9.40;99.90;;;;;;5031440;28;20514;-66
2023/03/20 12:23:57;;;;;;;18.60;7.95;;;9.30;99.90;;;;;;5048778;28;20094;-67
2023/03/20 12:27:04;;;;;;;13.50;7.57;;;9.30;99.90;;;;;;5050171;28;20085;-67
2023/03/20 12:29:42;;;;;;;13.07;7.47;;;9.30;99.90;;;;;;5048256;28;20045;-67
2023/03/20 12:32:30;;;;;;;18.15;9.00;;;9.20;99.90;;;;;;5049308;28;20041;-67
2023/03/20 12:35:04;;;;;;;16.25;9.10;;;9.10;99.90;;;;;;5048454;28;20056;-67
2023/03/20 12:37:31;;;;;;;19.40;9.38;;;9.00;99.90;;;;;;5049241;28;21044;-67
2023/03/20 12:39:59;;;;;;;19.15;11.35;;;9.00;99.90;;;;;;5050377;28;20076;-67
2023/03/20 12:42:52;;;;;;;20.50;10.25;;;9.10;99.90;;;;;;5049734;28;20402;-66
2023/03/20 12:45:40;;;;;;;18.40;10.40;;;9.00;99.90;;;;;;5048952;28;20060;-66
2023/03/20 12:48:35;;;;;;;17.77;10.35;;;9.00;99.90;;;;;;5049159;28;20409;-66
2023/03/20 12:51:11;;;;;;;19.02;10.43;;;8.90;99.90;;;;;;5053099;28;20044;-67
2023/03/20 12:53:52;;;;;;;19.15;11.73;;;8.90;99.90;;;;;;5052588;28;20045;-67
2023/03/20 12:56:30;;;;;;;24.15;11.95;;;8.90;99.90;;;;;;5053356;28;20037;-67
2023/03/20 12:59:21;;;;;;;25.88;12.95;;;8.80;99.90;;;;;;5052517;28;20119;-66
2023/03/20 13:01:56;;;;;;;19.05;10.52;;;8.80;99.90;;;;;;5052306;28;20041;-66
2023/03/20 13:04:41;;;;;;;17.92;11.88;;;8.90;99.90;;;;;;5051771;28;20498;-66
2023/03/20 13:07:39;;;;;;;21.25;12.55;;;8.80;99.90;;;;;;5053840;28;20064;-65